createdAt,value
2023-04-26T00:00:45.856Z,99415.13
2023-04-26T00:03:15.044Z,99414.84
2023-04-26T00:05:42.917Z,99416.13
2023-04-26T00:08:12.984Z,99413.03
2023-04-26T00:10:43.709Z,99419.38
2023-04-26T00:13:11.284Z,99417.38
2023-04-26T00:15:38.500Z,99414.16
2023-04-26T00:18:06.197Z,99409.66
2023-04-26T00:20:33.789Z,99410.06
2023-04-26T00:23:01.726Z,99412.75
2023-04-26T00:25:28.950Z,99404.59
2023-04-26T00:27:56.475Z,99407.94
2023-04-26T00:30:23.720Z,99417.94
2023-04-26T00:32:51.321Z,99410.91
2023-04-26T00:35:18.801Z,99403.16
2023-04-26T00:37:46.496Z,99406.28
2023-04-26T00:40:17.230Z,99408.25
2023-04-26T00:43:23.682Z,99405.16
2023-04-26T00:45:52.341Z,99403.47
2023-04-26T00:48:20.791Z,99411.06
2023-04-26T00:50:48.584Z,99403.31
2023-04-26T00:53:17.708Z,99400.38
2023-04-26T00:55:45.754Z,99395.88
2023-04-26T00:58:20.568Z,99404.16
2023-04-26T01:00:47.988Z,99400.53
2023-04-26T01:03:17.461Z,99399.97
2023-04-26T01:05:45.993Z,99400.50
2023-04-26T01:08:17.243Z,99413.88
2023-04-26T01:10:45.169Z,99406.38
2023-04-26T01:13:13.548Z,99404.00
2023-04-26T01:15:46.466Z,99410.44
2023-04-26T01:18:53.387Z,99415.66
2023-04-26T01:21:24.658Z,99408.19
2023-04-26T01:23:53.741Z,99419.84
2023-04-26T01:26:21.154Z,99408.97
2023-04-26T01:28:49.781Z,99402.78
2023-04-26T01:31:17.109Z,99406.56
2023-04-26T01:33:44.607Z,99395.78
2023-04-26T01:36:12.428Z,99409.84
2023-04-26T01:38:39.919Z,99392.78
2023-04-26T01:41:07.204Z,99389.88
2023-04-26T01:43:34.814Z,99414.16
2023-04-26T01:46:02.294Z,99410.13
2023-04-26T01:48:31.013Z,99413.63
2023-04-26T01:51:01.352Z,99411.28
2023-04-26T01:53:28.913Z,99402.69
2023-04-26T01:55:56.063Z,99401.56
2023-04-26T01:58:23.596Z,99401.56
2023-04-26T02:00:50.848Z,99414.19
2023-04-26T02:03:18.490Z,99401.38
2023-04-26T02:05:45.776Z,99414.72
2023-04-26T02:08:13.592Z,99407.72
2023-04-26T02:10:41.331Z,99406.28
2023-04-26T02:13:09.715Z,99404.03
2023-04-26T02:15:37.368Z,99404.91
2023-04-26T02:18:05.727Z,99397.97
2023-04-26T02:20:34.010Z,99398.25
2023-04-26T02:23:01.595Z,99386.75
2023-04-26T02:25:28.912Z,99389.63
2023-04-26T02:27:56.529Z,99400.50
2023-04-26T02:30:23.783Z,99400.25
2023-04-26T02:32:56.513Z,99402.72
2023-04-26T02:35:24.345Z,99406.09
2023-04-26T02:37:54.852Z,99402.03
2023-04-26T02:40:22.356Z,99403.75
2023-04-26T02:42:49.832Z,99401.28
2023-04-26T02:45:17.431Z,99403.69
2023-04-26T02:47:45.021Z,99383.22
2023-04-26T02:50:12.840Z,99395.47
2023-04-26T02:52:40.426Z,99391.19
2023-04-26T02:55:08.415Z,99385.16
2023-04-26T02:57:36.120Z,99390.09
2023-04-26T03:00:07.987Z,99390.09
2023-04-26T03:02:36.575Z,99390.13
2023-04-26T03:05:04.422Z,99402.06
2023-04-26T03:12:03.424Z,99399.06
2023-04-26T03:14:31.358Z,99399.19
2023-04-26T03:16:59.170Z,99396.38
2023-04-26T03:19:27.248Z,99387.91
2023-04-26T03:21:57.006Z,99402.78
2023-04-26T03:24:24.497Z,99401.13
2023-04-26T03:26:52.576Z,99406.44
2023-04-26T03:29:19.930Z,99410.13
2023-04-26T03:31:47.421Z,99405.19
2023-04-26T03:34:14.643Z,99404.31
2023-04-26T03:36:42.610Z,99403.91
2023-04-26T03:39:09.947Z,99390.97
2023-04-26T03:41:39.601Z,99402.38
2023-04-26T03:44:08.125Z,99410.81
2023-04-26T03:46:35.908Z,99416.56
2023-04-26T03:49:10.672Z,99410.00
2023-04-26T03:51:38.478Z,99417.41
2023-04-26T03:54:06.307Z,99417.53
2023-04-26T03:56:33.803Z,99410.72
2023-04-26T03:59:02.591Z,99424.59
2023-04-26T04:01:30.247Z,99414.22
2023-04-26T04:03:58.279Z,99423.91
2023-04-26T04:06:26.167Z,99428.75
2023-04-26T04:08:53.613Z,99433.22
2023-04-26T04:11:21.924Z,99430.13
2023-04-26T04:13:49.297Z,99432.66
2023-04-26T04:16:17.274Z,99417.22
2023-04-26T04:18:44.520Z,99439.69
2023-04-26T04:21:12.127Z,99443.47
2023-04-26T04:23:39.828Z,99438.25
2023-04-26T04:26:10.014Z,99435.75
2023-04-26T04:28:41.671Z,99439.28
2023-04-26T04:31:13.236Z,99431.41
2023-04-26T04:33:41.063Z,99435.78
2023-04-26T04:36:10.031Z,99431.69
2023-04-26T04:38:37.428Z,99435.47
2023-04-26T04:41:06.022Z,99436.47
2023-04-26T04:43:34.783Z,99434.75
2023-04-26T04:46:02.418Z,99446.13
2023-04-26T04:48:33.736Z,99441.06
2023-04-26T04:51:02.409Z,99432.34
2023-04-26T04:53:29.935Z,99441.31
2023-04-26T04:55:57.423Z,99447.59
2023-04-26T04:58:57.850Z,99447.78
2023-04-26T05:01:26.259Z,99461.72
2023-04-26T05:03:56.993Z,99454.16
2023-04-26T05:06:25.500Z,99444.28
2023-04-26T05:08:52.822Z,99443.31
2023-04-26T05:11:20.943Z,99460.13
2023-04-26T05:13:50.885Z,99460.63
2023-04-26T05:16:20.095Z,99458.75
2023-04-26T05:18:48.278Z,99465.97
2023-04-26T05:21:16.092Z,99475.84
2023-04-26T05:23:44.324Z,99458.06
2023-04-26T05:26:16.797Z,99476.28
2023-04-26T05:29:19.305Z,99463.38
2023-04-26T05:32:06.022Z,99475.66
2023-04-26T05:34:53.532Z,99471.88
2023-04-26T05:37:21.286Z,99453.63
2023-04-26T05:39:49.175Z,99464.69
2023-04-26T05:42:18.034Z,99458.28
2023-04-26T05:44:45.967Z,99463.75
2023-04-26T05:47:13.531Z,99448.47
2023-04-26T05:49:40.738Z,99453.06
2023-04-26T05:52:11.639Z,99462.84
2023-04-26T05:54:38.837Z,99468.63
2023-04-26T05:57:06.845Z,99469.94
2023-04-26T05:59:37.327Z,99475.28
2023-04-26T06:02:05.693Z,99473.78
2023-04-26T06:04:33.336Z,99481.97
2023-04-26T06:07:11.242Z,99465.81
2023-04-26T06:09:38.541Z,99473.13
2023-04-26T06:12:06.122Z,99478.81
2023-04-26T06:14:37.030Z,99480.38
2023-04-26T06:17:09.623Z,99470.06
2023-04-26T06:19:36.902Z,99481.22
2023-04-26T06:22:04.865Z,99480.00
2023-04-26T06:24:32.109Z,99472.41
2023-04-26T06:26:59.753Z,99475.69
2023-04-26T06:29:28.317Z,99495.75
2023-04-26T06:31:55.862Z,99479.16
2023-04-26T06:34:25.494Z,99476.13
2023-04-26T06:36:53.666Z,99482.84
2023-04-26T06:39:27.281Z,99464.63
2023-04-26T06:41:55.229Z,99482.09
2023-04-26T06:49:18.538Z,99464.13
2023-04-26T06:51:46.067Z,99469.91
2023-04-26T06:54:14.050Z,99466.38
2023-04-26T06:56:41.571Z,99484.63
2023-04-26T06:59:09.289Z,99484.72
2023-04-26T07:01:37.081Z,99483.91
2023-04-26T07:04:08.444Z,99489.91
2023-04-26T07:06:37.576Z,99492.41
2023-04-26T07:09:05.262Z,99477.50
2023-04-26T07:11:32.736Z,99483.69
2023-04-26T07:14:00.560Z,99486.94
2023-04-26T07:16:28.075Z,99492.31
2023-04-26T07:18:59.606Z,99486.69
2023-04-26T07:21:27.171Z,99482.34
2023-04-26T07:23:58.264Z,99476.69
2023-04-26T07:26:29.884Z,99487.56
2023-04-26T07:28:57.574Z,99487.16
2023-04-26T07:31:25.475Z,99491.63
2023-04-26T07:33:53.442Z,99495.44
2023-04-26T07:36:22.968Z,99492.81
2023-04-26T07:38:51.934Z,99488.78
2023-04-26T07:41:19.309Z,99497.13
2023-04-26T07:43:47.114Z,99492.88
2023-04-26T07:46:14.642Z,99488.03
2023-04-26T07:48:42.367Z,99502.53
2023-04-26T07:51:13.833Z,99493.72
2023-04-26T07:53:41.912Z,99490.34
2023-04-26T07:56:09.668Z,99503.31
2023-04-26T07:58:39.454Z,99502.59
2023-04-26T08:01:07.536Z,99505.75
2023-04-26T08:03:35.536Z,99501.09
2023-04-26T08:06:03.915Z,99509.19
2023-04-26T08:08:33.572Z,99486.44
2023-04-26T08:11:01.438Z,99514.25
2023-04-26T08:13:29.620Z,99506.63
2023-04-26T08:15:57.128Z,99503.34
2023-04-26T08:18:24.861Z,99509.03
2023-04-26T08:20:55.292Z,99513.84
2023-04-26T08:23:23.173Z,99499.75
2023-04-26T08:25:50.766Z,99517.09
2023-04-26T08:28:18.645Z,99521.75
2023-04-26T08:30:46.173Z,99528.38
2023-04-26T08:33:13.917Z,99527.97
2023-04-26T08:35:41.337Z,99538.38
2023-04-26T08:38:09.008Z,99531.94
2023-04-26T08:40:36.787Z,99541.97
2023-04-26T08:43:04.725Z,99537.75
2023-04-26T08:45:35.758Z,99547.78
2023-04-26T08:48:11.931Z,99531.13
2023-04-26T08:50:40.869Z,99538.94
2023-04-26T08:53:09.395Z,99548.53
2023-04-26T08:55:37.687Z,99540.25
2023-04-26T08:58:06.092Z,99537.56
2023-04-26T09:00:33.604Z,99537.81
2023-04-26T09:03:01.554Z,99539.41
2023-04-26T09:05:29.011Z,99548.03
2023-04-26T09:08:07.450Z,99550.19
2023-04-26T09:10:35.584Z,99546.31
2023-04-26T09:13:03.332Z,99537.88
2023-04-26T09:15:30.804Z,99560.25
2023-04-26T09:18:17.163Z,99533.09
2023-04-26T09:20:45.970Z,99554.91
2023-04-26T09:23:14.113Z,99556.97
2023-04-26T09:25:42.016Z,99555.13
2023-04-26T09:28:21.642Z,99558.22
2023-04-26T09:30:49.549Z,99546.91
2023-04-26T09:33:17.285Z,99555.16
2023-04-26T09:35:45.007Z,99554.69
2023-04-26T09:38:14.949Z,99564.81
2023-04-26T09:40:46.552Z,99566.91
2023-04-26T09:43:15.617Z,99565.34
2023-04-26T09:45:57.595Z,99571.34
2023-04-26T09:48:30.952Z,99570.25
2023-04-26T09:51:08.883Z,99570.78
2023-04-26T09:53:42.533Z,99580.94
2023-04-26T09:56:14.729Z,99577.03
2023-04-26T09:58:52.481Z,99578.69
2023-04-26T10:01:20.533Z,99593.25
2023-04-26T10:03:48.682Z,99581.66
2023-04-26T10:06:17.026Z,99585.19
2023-04-26T10:08:45.614Z,99579.19
2023-04-26T10:11:14.052Z,99584.28
2023-04-26T10:14:14.279Z,99601.94
2023-04-26T10:16:44.828Z,99600.47
2023-04-26T10:19:12.668Z,99603.25
2023-04-26T10:21:42.682Z,99613.97
2023-04-26T10:24:11.172Z,99608.91
2023-04-26T10:26:56.903Z,99614.47
2023-04-26T10:29:26.324Z,99621.72
2023-04-26T10:32:02.958Z,99628.03
2023-04-26T10:34:32.511Z,99615.28
2023-04-26T10:37:11.806Z,99614.13
2023-04-26T10:39:41.210Z,99627.94
2023-04-26T10:42:28.063Z,99623.69
2023-04-26T10:44:59.865Z,99631.31
2023-04-26T10:47:37.487Z,99636.44
2023-04-26T10:50:11.334Z,99656.16
2023-04-26T10:53:04.342Z,99649.41
2023-04-26T10:56:28.245Z,99656.16
2023-04-26T11:01:46.613Z,99667.00
2023-04-26T11:04:14.508Z,99655.56
2023-04-26T11:06:53.506Z,99659.53
2023-04-26T11:09:40.946Z,99659.84
2023-04-26T11:12:13.863Z,99655.22
2023-04-26T11:14:42.505Z,99659.66
2023-04-26T11:17:10.827Z,99661.41
2023-04-26T11:19:38.655Z,99671.13
2023-04-26T11:22:08.106Z,99666.28
2023-04-26T11:24:37.464Z,99659.78
2023-04-26T11:27:10.141Z,99663.50
2023-04-26T11:29:38.274Z,99673.66
2023-04-26T11:32:06.268Z,99681.91
2023-04-26T11:34:35.580Z,99661.31
2023-04-26T11:37:05.040Z,99674.53
2023-04-26T11:39:33.574Z,99671.47
2023-04-26T11:44:53.542Z,99682.19
2023-04-26T11:47:23.044Z,99684.00
2023-04-26T11:49:50.998Z,99687.31
2023-04-26T11:52:19.077Z,99671.16
2023-04-26T11:54:46.466Z,99662.25
2023-04-26T11:57:17.196Z,99686.34
2023-04-26T11:59:46.132Z,99672.78
2023-04-26T12:02:14.499Z,99668.97
2023-04-26T12:04:42.403Z,99681.47
2023-04-26T12:07:10.202Z,99671.38
2023-04-26T12:09:41.818Z,99690.44
2023-04-26T12:12:09.636Z,99691.19
2023-04-26T12:14:40.747Z,99692.66
2023-04-26T12:17:08.855Z,99693.94
2023-04-26T12:19:40.690Z,99702.44
2023-04-26T12:22:09.261Z,99688.66
2023-04-26T12:24:39.688Z,99705.06
2023-04-26T12:27:07.995Z,99714.91
2023-04-26T12:29:35.812Z,99703.44
2023-04-26T12:32:04.404Z,99709.53
2023-04-26T12:34:32.057Z,99704.41
2023-04-26T12:36:59.860Z,99718.00
2023-04-26T12:39:27.267Z,99719.28
2023-04-26T12:41:55.417Z,99718.56
2023-04-26T12:44:22.929Z,99732.53
2023-04-26T12:46:51.414Z,99721.34
2023-04-26T12:49:18.668Z,99709.50
2023-04-26T12:51:46.322Z,99724.78
2023-04-26T12:54:13.547Z,99721.22
2023-04-26T12:56:44.656Z,99709.06
2023-04-26T12:59:12.145Z,99726.41
2023-04-26T13:01:39.865Z,99725.91
2023-04-26T13:04:07.540Z,99731.34
2023-04-26T13:06:35.954Z,99730.81
2023-04-26T13:09:03.455Z,99726.88
2023-04-26T13:11:31.048Z,99731.72
2023-04-26T13:13:58.457Z,99737.34
2023-04-26T13:16:26.439Z,99736.84
2023-04-26T13:18:54.466Z,99734.56
2023-04-26T13:21:22.116Z,99740.38
2023-04-26T13:23:49.354Z,99747.25
2023-04-26T13:26:18.446Z,99750.00
2023-04-26T13:28:45.626Z,99726.13
2023-04-26T13:31:13.187Z,99736.63
2023-04-26T13:33:40.726Z,99745.75
2023-04-26T13:36:08.277Z,99735.88
2023-04-26T13:38:35.523Z,99745.75
2023-04-26T13:41:03.105Z,99745.66
2023-04-26T13:43:30.257Z,99748.34
2023-04-26T13:45:57.841Z,99760.47
2023-04-26T13:48:25.201Z,99752.78
2023-04-26T13:50:52.749Z,99764.28
2023-04-26T13:53:20.048Z,99760.66
2023-04-26T13:55:47.742Z,99762.13
2023-04-26T13:58:15.286Z,99774.97
2023-04-26T14:00:43.032Z,99771.75
2023-04-26T14:03:10.552Z,99762.56
2023-04-26T14:05:38.206Z,99778.59
2023-04-26T14:08:06.104Z,99783.91
2023-04-26T14:10:33.681Z,99781.03
2023-04-26T14:13:00.896Z,99789.88
2023-04-26T14:15:28.841Z,99800.00
2023-04-26T14:17:56.157Z,99797.09
2023-04-26T14:20:23.666Z,99786.28
2023-04-26T14:22:50.916Z,99803.31
2023-04-26T14:25:19.015Z,99795.19
2023-04-26T14:27:46.598Z,99792.66
2023-04-26T14:30:14.790Z,99796.66
2023-04-26T14:32:42.373Z,99813.47
2023-04-26T14:35:09.681Z,99803.31
2023-04-26T14:37:37.860Z,99814.16
2023-04-26T14:40:08.080Z,99817.97
2023-04-26T14:42:37.958Z,99826.94
2023-04-26T14:45:07.761Z,99818.31
2023-04-26T14:47:35.520Z,99822.38
2023-04-26T14:50:02.715Z,99809.69
2023-04-26T14:52:31.499Z,99821.03
2023-04-26T14:54:58.783Z,99810.75
2023-04-26T14:57:26.447Z,99824.56
2023-04-26T14:59:53.620Z,99822.06
2023-04-26T15:02:21.365Z,99819.53
2023-04-26T15:04:49.419Z,99845.13
2023-04-26T15:07:28.701Z,99834.50
2023-04-26T15:09:59.996Z,99836.88
2023-04-26T15:12:28.158Z,99846.16
2023-04-26T15:14:56.218Z,99846.44
2023-04-26T15:17:23.924Z,99839.91
2023-04-26T15:19:51.394Z,99852.47
2023-04-26T15:22:19.022Z,99854.59
2023-04-26T15:24:46.380Z,99850.41
2023-04-26T15:27:13.929Z,99850.81
2023-04-26T15:29:41.346Z,99856.88
2023-04-26T15:32:09.580Z,99842.13
2023-04-26T15:34:43.350Z,99851.72
2023-04-26T15:37:11.365Z,99851.97
2023-04-26T15:39:38.761Z,99858.13
2023-04-26T15:42:07.076Z,99868.19
2023-04-26T15:44:34.403Z,99854.28
2023-04-26T15:47:02.567Z,99850.09
2023-04-26T15:49:30.207Z,99865.22
2023-04-26T15:51:57.827Z,99859.66
2023-04-26T15:54:26.557Z,99864.00
2023-04-26T15:56:55.308Z,99856.53
2023-04-26T15:59:22.571Z,99858.22
2023-04-26T16:01:50.167Z,99858.09
2023-04-26T16:04:17.597Z,99852.75
2023-04-26T16:06:45.204Z,99863.50
2023-04-26T16:09:24.832Z,99879.19
2023-04-26T16:11:53.250Z,99870.16
2023-04-26T16:14:20.805Z,99848.06
2023-04-26T16:16:48.360Z,99872.22
2023-04-26T16:19:17.313Z,99873.25
2023-04-26T16:21:44.831Z,99868.34
2023-04-26T16:24:12.456Z,99873.56
2023-04-26T16:26:40.152Z,99872.84
2023-04-26T16:29:07.423Z,99882.44
2023-04-26T16:31:35.063Z,99878.38
2023-04-26T16:34:02.513Z,99887.63
2023-04-26T16:36:30.524Z,99890.91
2023-04-26T16:38:57.717Z,99893.16
2023-04-26T16:41:26.744Z,99902.47
2023-04-26T16:43:55.181Z,99896.88
2023-04-26T16:46:23.526Z,99899.13
2023-04-26T16:48:51.051Z,99902.22
2023-04-26T16:51:18.538Z,99902.09
2023-04-26T16:53:45.831Z,99897.97
2023-04-26T16:56:13.305Z,99916.28
2023-04-26T16:58:40.520Z,99912.50
2023-04-26T17:01:08.173Z,99906.31
2023-04-26T17:03:35.786Z,99916.00
2023-04-26T17:06:04.269Z,99913.19
2023-04-26T17:08:31.662Z,99918.53
2023-04-26T17:10:59.251Z,99925.13
2023-04-26T17:13:29.453Z,99920.78
2023-04-26T17:15:57.213Z,99927.84
2023-04-26T17:18:24.847Z,99930.00
2023-04-26T17:20:53.860Z,99920.38
2023-04-26T17:23:21.267Z,99922.78
2023-04-26T17:25:49.515Z,99923.00
2023-04-26T17:28:17.133Z,99916.00
2023-04-26T17:30:44.657Z,99921.78
2023-04-26T17:33:12.664Z,99922.22
2023-04-26T17:35:40.187Z,99934.22
2023-04-26T17:38:07.766Z,99930.22
2023-04-26T17:40:35.360Z,99940.41
2023-04-26T17:43:02.830Z,99940.56
2023-04-26T17:45:30.535Z,99944.63
2023-04-26T17:47:57.829Z,99949.38
2023-04-26T17:50:25.636Z,99936.16
2023-04-26T17:52:52.801Z,99948.81
2023-04-26T17:55:20.323Z,99947.44
2023-04-26T17:57:47.549Z,99955.78
2023-04-26T18:00:15.782Z,99953.28
2023-04-26T18:02:44.052Z,99956.59
2023-04-26T18:05:11.869Z,99952.22
2023-04-26T18:07:39.260Z,99961.66
2023-04-26T18:10:07.565Z,99957.38
2023-04-26T18:12:35.453Z,99967.00
2023-04-26T18:15:02.934Z,99975.13
2023-04-26T18:17:31.017Z,99978.16
2023-04-26T18:19:58.968Z,99978.38
2023-04-26T18:22:26.924Z,99981.50
2023-04-26T18:24:54.448Z,99985.22
2023-04-26T18:27:21.690Z,99985.31
2023-04-26T18:29:49.390Z,99985.00
2023-04-26T18:32:16.890Z,99989.13
2023-04-26T18:34:44.535Z,99990.44
2023-04-26T18:37:11.729Z,99991.56
2023-04-26T18:39:39.425Z,99993.94
2023-04-26T18:42:06.693Z,99994.81
2023-04-26T18:44:34.253Z,99993.50
2023-04-26T18:47:01.461Z,99999.94
2023-04-26T18:49:29.196Z,100004.69
2023-04-26T18:51:57.382Z,100010.00
2023-04-26T18:54:26.362Z,100007.13
2023-04-26T18:56:54.214Z,100003.72
2023-04-26T18:59:21.743Z,100012.09
2023-04-26T19:01:49.298Z,100002.38
2023-04-26T19:04:17.232Z,100008.47
2023-04-26T19:06:44.608Z,99999.44
2023-04-26T19:09:12.833Z,100004.19
2023-04-26T19:11:40.514Z,100010.63
2023-04-26T19:14:08.079Z,100007.34
2023-04-26T19:16:35.517Z,100012.34
2023-04-26T19:19:03.560Z,100012.44
2023-04-26T19:21:32.124Z,100010.50
2023-04-26T19:23:59.688Z,100004.09
2023-04-26T19:26:26.967Z,100006.84
2023-04-26T19:28:55.857Z,100001.56
2023-04-26T19:31:23.654Z,100003.72
2023-04-26T19:33:51.311Z,100003.91
2023-04-26T19:36:18.717Z,100002.47
2023-04-26T19:38:48.446Z,100012.41
2023-04-26T19:41:15.839Z,100005.25
2023-04-26T19:43:43.387Z,100013.22
2023-04-26T19:46:12.206Z,100009.28
2023-04-26T19:48:40.945Z,100016.56
2023-04-26T19:51:08.284Z,100017.44
2023-04-26T19:53:35.876Z,100007.81
2023-04-26T19:56:03.366Z,100003.47
2023-04-26T19:58:30.899Z,100006.38
2023-04-26T20:00:58.134Z,100002.88
2023-04-26T20:03:25.832Z,100014.38
2023-04-26T20:05:53.260Z,100002.97
2023-04-26T20:08:20.818Z,100011.31
2023-04-26T20:10:48.009Z,100011.06
2023-04-26T20:13:15.498Z,100015.22
2023-04-26T20:15:42.781Z,99996.53
2023-04-26T20:18:10.374Z,100013.78
2023-04-26T20:20:37.905Z,100004.66
2023-04-26T20:23:05.463Z,100015.34
2023-04-26T20:25:32.693Z,100010.59
2023-04-26T20:28:02.159Z,100008.91
2023-04-26T20:30:31.014Z,100014.25
2023-04-26T20:32:58.551Z,100015.56
2023-04-26T20:35:26.011Z,100013.88
2023-04-26T20:37:53.664Z,100004.06
2023-04-26T20:40:21.726Z,100009.50
2023-04-26T20:42:49.242Z,100010.94
2023-04-26T20:45:17.396Z,100012.28
2023-04-26T20:47:45.784Z,100013.88
2023-04-26T20:50:13.152Z,100019.16
2023-04-26T20:52:41.206Z,100016.41
2023-04-26T20:55:08.848Z,100006.50
2023-04-26T20:57:36.474Z,100013.28
2023-04-26T21:00:04.406Z,100019.59
2023-04-26T21:02:32.808Z,100012.56
2023-04-26T21:05:00.100Z,100019.94
2023-04-26T21:07:27.566Z,100013.50
2023-04-26T21:09:54.786Z,100003.50
2023-04-26T21:12:22.317Z,100012.91
2023-04-26T21:14:49.696Z,100006.66
2023-04-26T21:17:18.444Z,100019.88
2023-04-26T21:19:46.530Z,100024.50
2023-04-26T21:22:14.066Z,100012.09
2023-04-26T21:24:41.798Z,100029.09
2023-04-26T21:27:09.602Z,100022.78
2023-04-26T21:29:36.877Z,100029.94
2023-04-26T21:32:04.665Z,100034.03
2023-04-26T21:34:32.194Z,100034.03
2023-04-26T21:36:59.851Z,100035.44
2023-04-26T21:39:27.155Z,100039.66
2023-04-26T21:41:54.615Z,100040.69
2023-04-26T21:44:21.826Z,100034.28
2023-04-26T21:46:49.574Z,100038.81
2023-04-26T21:49:16.757Z,100046.25
2023-04-26T21:51:44.228Z,100039.41
2023-04-26T21:54:11.668Z,100046.25
2023-04-26T21:56:39.249Z,100047.88
2023-04-26T21:59:08.288Z,100044.22
2023-04-26T22:01:35.951Z,100045.16
2023-04-26T22:04:03.707Z,100061.19
2023-04-26T22:06:31.275Z,100060.44
2023-04-26T22:08:58.489Z,100062.34
2023-04-26T22:11:26.058Z,100056.50
2023-04-26T22:13:53.234Z,100051.00
2023-04-26T22:16:20.919Z,100065.75
2023-04-26T22:18:48.170Z,100056.63
2023-04-26T22:21:15.661Z,100060.94
2023-04-26T22:23:42.823Z,100058.06
2023-04-26T22:26:10.456Z,100062.75
2023-04-26T22:28:37.649Z,100065.44
2023-04-26T22:31:05.287Z,100070.88
2023-04-26T22:33:32.483Z,100069.00
2023-04-26T22:36:00.041Z,100061.44
2023-04-26T22:38:27.226Z,100076.72
2023-04-26T22:40:54.937Z,100072.44
2023-04-26T22:43:22.984Z,100074.13
2023-04-26T22:45:50.606Z,100071.63
2023-04-26T22:48:17.936Z,100080.88
2023-04-26T22:50:49.183Z,100081.72
2023-04-26T22:53:16.937Z,100081.47
2023-04-26T22:55:44.455Z,100076.09
2023-04-26T22:58:11.701Z,100083.00
2023-04-26T23:00:39.395Z,100083.53
2023-04-26T23:03:06.672Z,100082.94
2023-04-26T23:05:34.264Z,100089.84
2023-04-26T23:08:01.557Z,100084.03
2023-04-26T23:10:29.153Z,100094.25
2023-04-26T23:12:56.382Z,100082.13
2023-04-26T23:15:24.141Z,100092.09
2023-04-26T23:17:51.428Z,100089.75
2023-04-26T23:20:19.258Z,100077.41
2023-04-26T23:22:46.453Z,100082.94
2023-04-26T23:25:13.713Z,100088.25
2023-04-26T23:27:41.507Z,100091.56
2023-04-26T23:30:09.234Z,100081.13
2023-04-26T23:32:36.849Z,100091.25
2023-04-26T23:35:04.630Z,100089.31
2023-04-26T23:37:32.193Z,100089.47
2023-04-26T23:39:59.501Z,100096.56
2023-04-26T23:42:27.066Z,100092.66
2023-04-26T23:44:54.352Z,100096.78
2023-04-26T23:47:21.814Z,100091.31
2023-04-26T23:49:49.057Z,100092.44
2023-04-26T23:52:16.572Z,100085.97
2023-04-26T23:54:43.754Z,100090.78
2023-04-26T23:57:11.308Z,100080.44
2023-04-26T23:59:38.566Z,100082.78
